Time;durP1;ratioP1;P1;durP2;ratioP2;P2;SDS_P1;SDS_P2;PMS_P1;PMS_P2;Temp;Humidity;BMP_temperature;BMP_pressure;BME280_temperature;BME280_humidity;BME280_pressure;Samples;Min_cycle;Max_cycle;Signal;HPM_P1;HPM_P2
2022/05/04 00:01:35;;;;;;;22.13;11.95;;;10.10;99.90;;;;;;5095660;28;20473;-49
2022/05/04 00:04:01;;;;;;;23.83;13.82;;;10.10;99.90;;;;;;5095255;28;20114;-49
2022/05/04 00:06:27;;;;;;;26.35;12.65;;;10.20;99.90;;;;;;5095608;28;20032;-50
2022/05/04 00:08:53;;;;;;;21.20;12.43;;;10.20;99.90;;;;;;5095921;28;20381;-49
2022/05/04 00:11:18;;;;;;;28.70;13.32;;;10.30;99.90;;;;;;5096105;28;20036;-50
2022/05/04 00:13:44;;;;;;;27.17;14.30;;;10.30;99.90;;;;;;5094864;28;20038;-49
2022/05/04 00:16:10;;;;;;;27.10;12.90;;;10.30;99.90;;;;;;5095114;28;20024;-50
2022/05/04 00:18:35;;;;;;;26.00;12.90;;;10.30;99.90;;;;;;5094806;28;20119;-50
2022/05/04 00:21:01;;;;;;;26.92;12.98;;;10.40;99.90;;;;;;5095369;28;20024;-49
2022/05/04 00:23:27;;;;;;;24.00;12.95;;;10.40;99.90;;;;;;5095554;28;20126;-49
2022/05/04 00:25:53;;;;;;;26.80;12.82;;;10.40;99.90;;;;;;5095434;28;20081;-50
2022/05/04 00:28:18;;;;;;;22.17;12.52;;;10.30;99.90;;;;;;5094832;28;20530;-49
2022/05/04 00:30:44;;;;;;;26.48;13.07;;;10.30;99.90;;;;;;5095446;28;20016;-50
2022/05/04 00:33:10;;;;;;;26.77;13.50;;;10.30;99.90;;;;;;5095178;28;20073;-49
2022/05/04 00:35:36;;;;;;;25.25;13.63;;;10.20;99.90;;;;;;5094633;28;20508;-50
2022/05/04 00:38:03;;;;;;;25.05;13.55;;;10.20;99.90;;;;;;5095733;28;20566;-49
2022/05/04 00:40:28;;;;;;;27.33;13.40;;;10.20;99.90;;;;;;5095508;28;20020;-49
2022/05/04 00:42:54;;;;;;;24.38;13.45;;;10.20;99.90;;;;;;5095035;28;20035;-49
2022/05/04 00:45:20;;;;;;;27.02;13.02;;;10.10;99.90;;;;;;5094456;28;20393;-49
2022/05/04 00:47:46;;;;;;;27.13;14.48;;;10.00;99.90;;;;;;5094525;28;20039;-50
2022/05/04 00:50:12;;;;;;;25.13;13.77;;;10.00;99.90;;;;;;5094543;28;20027;-50
2022/05/04 00:52:44;;;;;;;25.98;14.02;;;10.00;99.90;;;;;;5094796;28;20062;-49
2022/05/04 00:55:11;;;;;;;28.45;13.80;;;10.00;99.90;;;;;;5095088;28;20027;-50
2022/05/04 01:00:24;;;;;;;22.67;12.85;;;9.90;99.90;;;;;;5095030;28;20035;-50
2022/05/04 01:02:50;;;;;;;25.25;13.70;;;9.90;99.90;;;;;;5094317;28;20028;-49
2022/05/04 01:05:15;;;;;;;28.95;14.25;;;9.80;99.90;;;;;;5094877;28;20035;-49
2022/05/04 01:07:42;;;;;;;24.23;13.70;;;9.70;99.90;;;;;;5092878;28;20393;-50
2022/05/04 01:10:10;;;;;;;25.73;13.88;;;9.60;99.90;;;;;;5095084;28;20027;-50
2022/05/04 01:12:36;;;;;;;25.27;13.10;;;9.60;99.90;;;;;;5093923;28;20032;-49
2022/05/04 01:15:06;;;;;;;29.23;13.90;;;9.60;99.90;;;;;;5094721;28;20385;-49
2022/05/04 01:17:31;;;;;;;26.23;13.23;;;9.60;99.90;;;;;;5094661;28;20016;-49
2022/05/04 01:19:57;;;;;;;25.33;13.35;;;9.50;99.90;;;;;;5094748;28;20234;-49
2022/05/04 01:22:24;;;;;;;27.58;14.68;;;9.50;99.90;;;;;;5094816;28;20028;-49
2022/05/04 01:24:50;;;;;;;23.52;12.43;;;9.40;99.90;;;;;;5094421;28;20046;-49
2022/05/04 01:27:16;;;;;;;24.02;12.32;;;9.30;99.90;;;;;;5094207;28;20103;-49
2022/05/04 01:29:41;;;;;;;27.20;12.90;;;9.30;99.90;;;;;;5094685;28;20500;-49
2022/05/04 01:32:08;;;;;;;24.88;13.32;;;9.30;99.90;;;;;;5094709;28;20073;-49
2022/05/04 01:34:33;;;;;;;27.88;12.60;;;9.30;99.90;;;;;;5093585;28;20072;-49
2022/05/04 01:37:00;;;;;;;29.42;13.85;;;9.20;99.90;;;;;;5094050;28;20447;-48
2022/05/04 01:39:25;;;;;;;25.75;13.15;;;9.20;99.90;;;;;;5093640;28;20031;-49
2022/05/04 01:42:03;;;;;;;26.70;13.90;;;9.10;99.90;;;;;;5094055;28;20029;-49
2022/05/04 01:44:33;;;;;;;22.10;12.35;;;9.00;99.90;;;;;;5093726;28;20024;-48
2022/05/04 01:47:01;;;;;;;26.00;13.35;;;8.90;99.90;;;;;;5093572;28;20396;-49
2022/05/04 01:49:27;;;;;;;23.73;12.10;;;8.90;99.90;;;;;;5093333;28;20378;-48
2022/05/04 01:51:53;;;;;;;23.35;12.25;;;8.90;99.90;;;;;;5093067;28;20035;-49
2022/05/04 01:54:19;;;;;;;28.10;13.07;;;8.80;99.90;;;;;;5093155;28;20055;-49
2022/05/04 01:56:45;;;;;;;22.55;12.57;;;8.80;99.90;;;;;;5093125;28;20020;-49
2022/05/04 01:59:11;;;;;;;22.92;13.48;;;8.80;99.90;;;;;;5093265;28;20024;-49
2022/05/04 02:01:41;;;;;;;29.83;13.38;;;8.80;99.90;;;;;;5093528;28;20361;-49
2022/05/04 02:04:07;;;;;;;24.83;13.20;;;8.70;99.90;;;;;;5093057;28;20028;-49
2022/05/04 02:06:32;;;;;;;24.98;13.55;;;8.70;99.90;;;;;;5092986;28;20120;-49
2022/05/04 02:08:58;;;;;;;26.98;13.48;;;8.70;99.90;;;;;;5092961;28;20024;-49
2022/05/04 02:11:25;;;;;;;31.00;14.07;;;8.60;99.90;;;;;;5093758;28;20111;-49
2022/05/04 02:13:51;;;;;;;26.92;13.27;;;8.60;99.90;;;;;;5093068;28;20142;-49
2022/05/04 02:16:17;;;;;;;28.17;14.60;;;8.60;99.90;;;;;;5093242;28;20024;-50
2022/05/04 02:18:43;;;;;;;33.10;14.70;;;8.60;99.90;;;;;;5091904;28;20020;-49
2022/05/04 02:21:09;;;;;;;25.52;14.13;;;8.70;99.90;;;;;;5093537;28;20028;-49
2022/05/04 02:23:35;;;;;;;24.15;14.23;;;8.70;99.90;;;;;;5093383;28;20469;-49
2022/05/04 02:26:01;;;;;;;22.15;13.57;;;8.60;99.90;;;;;;5092904;28;20024;-49
2022/05/04 02:28:27;;;;;;;26.50;14.85;;;8.50;99.90;;;;;;5092980;28;20027;-49
2022/05/04 02:30:52;;;;;;;29.10;15.55;;;8.50;99.90;;;;;;5092305;28;20020;-49
2022/05/04 02:33:18;;;;;;;34.05;15.65;;;8.50;99.90;;;;;;5092059;28;20028;-49
2022/05/04 02:38:28;;;;;;;30.33;16.50;;;8.50;99.90;;;;;;5092966;28;20620;-49
2022/05/04 02:40:53;;;;;;;33.88;15.90;;;8.50;99.90;;;;;;5090656;28;20028;-49
2022/05/04 02:43:19;;;;;;;35.03;16.77;;;8.40;99.90;;;;;;5092155;28;20032;-49
2022/05/04 02:45:45;;;;;;;30.63;16.05;;;8.40;99.90;;;;;;5092428;28;20175;-48
2022/05/04 02:48:11;;;;;;;28.95;16.10;;;8.40;99.90;;;;;;5092187;28;20080;-49
2022/05/04 02:50:37;;;;;;;35.15;17.10;;;8.40;99.90;;;;;;5092507;28;20373;-49
2022/05/04 02:53:06;;;;;;;34.30;17.08;;;8.40;99.90;;;;;;5092375;28;20080;-48
2022/05/04 02:55:32;;;;;;;36.20;16.60;;;8.30;99.90;;;;;;5092525;28;20519;-49
2022/05/04 02:57:58;;;;;;;31.42;15.95;;;8.40;99.90;;;;;;5093252;28;20102;-49
2022/05/04 03:00:25;;;;;;;30.73;16.98;;;8.40;99.90;;;;;;5091470;28;20067;-49
2022/05/04 03:02:51;;;;;;;34.03;17.05;;;8.40;99.90;;;;;;5092331;28;20036;-49
2022/05/04 03:05:17;;;;;;;31.40;16.65;;;8.40;99.90;;;;;;5090133;28;20031;-50
2022/05/04 03:07:43;;;;;;;31.33;17.00;;;8.50;99.90;;;;;;5091585;28;20031;-49
2022/05/04 03:10:10;;;;;;;37.08;17.33;;;8.60;99.90;;;;;;5092206;28;20025;-49
2022/05/04 03:12:36;;;;;;;33.90;16.95;;;8.60;99.90;;;;;;5091714;28;20481;-49
2022/05/04 03:15:03;;;;;;;37.03;17.48;;;8.70;99.90;;;;;;5092054;28;20038;-49
2022/05/04 03:17:29;;;;;;;39.85;18.58;;;8.70;99.90;;;;;;5092115;28;20480;-49
2022/05/04 03:19:54;;;;;;;30.63;16.70;;;8.80;99.90;;;;;;5091939;28;20028;-49
2022/05/04 03:22:20;;;;;;;33.72;17.80;;;8.80;99.90;;;;;;5090944;28;20021;-49
2022/05/04 03:24:46;;;;;;;36.88;17.83;;;8.90;99.90;;;;;;5092288;28;20102;-49
2022/05/04 03:27:12;;;;;;;33.85;18.15;;;8.90;99.90;;;;;;5092341;28;20042;-50
2022/05/04 03:29:37;;;;;;;40.35;18.88;;;9.00;99.90;;;;;;5092728;28;20081;-50
2022/05/04 03:32:03;;;;;;;33.25;18.40;;;9.00;99.90;;;;;;5092559;28;20385;-49
2022/05/04 03:34:30;;;;;;;35.90;18.30;;;9.10;99.90;;;;;;5093415;28;20044;-50
2022/05/04 03:36:57;;;;;;;35.05;18.63;;;9.10;99.90;;;;;;5096157;28;20040;-50
2022/05/04 03:39:23;;;;;;;39.63;18.88;;;9.10;99.90;;;;;;5096554;28;20027;-50
2022/05/04 03:41:49;;;;;;;43.53;19.42;;;9.10;99.90;;;;;;5096609;28;20032;-50
2022/05/04 03:44:16;;;;;;;39.17;20.52;;;9.00;99.90;;;;;;5095226;28;20028;-50
2022/05/04 03:46:49;;;;;;;33.80;18.90;;;9.00;99.90;;;;;;5096455;28;20032;-50
2022/05/04 03:49:17;;;;;;;34.13;18.90;;;8.90;99.90;;;;;;5096729;28;20032;-50
2022/05/04 03:51:42;;;;;;;36.88;18.30;;;8.90;99.90;;;;;;5096698;28;20078;-50
2022/05/04 03:54:09;;;;;;;34.70;18.98;;;8.90;99.90;;;;;;5096727;28;20028;-49
2022/05/04 03:56:35;;;;;;;36.58;18.80;;;8.90;99.90;;;;;;5096701;28;20479;-51
2022/05/04 03:59:02;;;;;;;34.63;18.65;;;8.90;99.90;;;;;;5096380;28;20024;-50
2022/05/04 04:01:28;;;;;;;47.25;23.80;;;8.90;99.90;;;;;;5096035;28;20028;-50
2022/05/04 04:03:54;;;;;;;45.00;19.70;;;8.80;99.90;;;;;;5094749;28;20030;-50
2022/05/04 04:06:19;;;;;;;43.42;20.92;;;8.80;99.90;;;;;;5095217;28;20107;-50
2022/05/04 04:08:45;;;;;;;40.55;20.58;;;8.90;99.90;;;;;;5094491;28;20028;-49
2022/05/04 04:11:11;;;;;;;35.88;19.70;;;8.70;99.90;;;;;;5095104;28;20024;-50
2022/05/04 04:13:37;;;;;;;36.22;19.30;;;8.70;99.90;;;;;;5094575;28;20031;-50
2022/05/04 04:16:04;;;;;;;39.33;20.83;;;8.60;99.90;;;;;;5094913;28;20411;-50
2022/05/04 04:18:29;;;;;;;37.53;20.15;;;8.60;99.90;;;;;;5094978;28;20483;-50
2022/05/04 04:23:41;;;;;;;37.38;21.10;;;8.40;99.90;;;;;;5095558;28;20039;-49
2022/05/04 04:26:08;;;;;;;40.08;20.83;;;8.40;99.90;;;;;;5096140;28;20020;-50
2022/05/04 04:28:35;;;;;;;41.40;20.73;;;8.40;99.90;;;;;;5095581;28;20031;-50
2022/05/04 04:31:02;;;;;;;36.50;20.63;;;8.30;99.90;;;;;;5095826;28;20028;-50
2022/05/04 04:33:29;;;;;;;40.67;21.75;;;8.30;99.90;;;;;;5095121;28;20089;-50
2022/05/04 04:35:55;;;;;;;36.90;20.98;;;8.20;99.90;;;;;;5095238;28;20036;-50
2022/05/04 04:38:21;;;;;;;39.80;21.05;;;8.20;99.90;;;;;;5095488;28;20028;-50
2022/05/04 04:40:47;;;;;;;41.58;21.58;;;8.20;99.90;;;;;;5094443;28;20027;-49
2022/05/04 04:43:14;;;;;;;38.42;20.92;;;8.20;99.90;;;;;;5095657;28;20540;-49
2022/05/04 04:45:40;;;;;;;39.05;21.52;;;8.10;99.90;;;;;;5093647;28;20028;-50
2022/05/04 04:48:06;;;;;;;38.45;21.48;;;8.20;99.90;;;;;;5092853;28;20032;-49
2022/05/04 04:50:32;;;;;;;40.38;20.27;;;8.10;99.90;;;;;;5093236;28;20413;-49
2022/05/04 04:52:57;;;;;;;41.38;20.60;;;8.10;99.90;;;;;;5093330;28;20039;-49
2022/05/04 04:55:23;;;;;;;46.92;22.35;;;8.10;99.90;;;;;;5093248;28;20054;-49
2022/05/04 04:57:49;;;;;;;42.10;22.80;;;8.10;99.90;;;;;;5092933;28;20081;-49
2022/05/04 05:00:15;;;;;;;40.80;22.45;;;8.10;99.90;;;;;;5092841;28;20032;-49
2022/05/04 05:02:41;;;;;;;42.50;21.50;;;8.10;99.90;;;;;;5093484;28;20516;-49
2022/05/04 05:05:07;;;;;;;46.10;25.17;;;8.10;99.90;;;;;;5093060;28;20028;-49
2022/05/04 05:07:33;;;;;;;50.45;23.77;;;8.20;99.90;;;;;;5092953;28;20020;-49
2022/05/04 05:09:58;;;;;;;46.42;22.98;;;8.20;99.90;;;;;;5092658;28;20476;-49
2022/05/04 05:12:24;;;;;;;42.35;22.33;;;8.20;99.90;;;;;;5093170;28;20124;-49
2022/05/04 05:17:35;;;;;;;43.58;23.02;;;8.30;99.90;;;;;;5092516;28;20028;-48
2022/05/04 05:20:05;;;;;;;45.40;24.25;;;8.40;99.90;;;;;;5092713;28;20465;-49
2022/05/04 05:22:30;;;;;;;41.58;23.13;;;8.40;99.90;;;;;;5092611;28;20036;-49
2022/05/04 05:24:56;;;;;;;42.88;23.13;;;8.40;99.90;;;;;;5092761;28;20053;-49
2022/05/04 05:27:22;;;;;;;43.95;22.83;;;8.40;99.90;;;;;;5092370;28;20032;-49
2022/05/04 05:29:48;;;;;;;43.90;23.80;;;8.40;99.90;;;;;;5092444;28;20032;-49
2022/05/04 05:32:14;;;;;;;42.17;21.80;;;8.50;99.90;;;;;;5092817;28;20504;-49
2022/05/04 05:34:40;;;;;;;42.17;21.88;;;8.50;99.90;;;;;;5091964;28;20048;-49
2022/05/04 05:37:05;;;;;;;43.08;22.95;;;8.50;99.90;;;;;;5092095;28;20056;-48
2022/05/04 05:39:31;;;;;;;41.58;23.02;;;8.50;99.90;;;;;;5092979;28;20103;-49
2022/05/04 05:41:56;;;;;;;39.85;22.58;;;8.60;99.90;;;;;;5092434;28;20020;-49
2022/05/04 05:44:22;;;;;;;40.83;22.50;;;8.80;99.90;;;;;;5075314;28;20032;-49
2022/05/04 05:46:48;;;;;;;49.97;23.65;;;8.90;99.90;;;;;;5076560;28;20028;-49
2022/05/04 05:49:13;;;;;;;40.83;22.77;;;9.10;99.90;;;;;;5081968;28;20036;-49
2022/05/04 05:51:39;;;;;;;36.42;21.55;;;9.20;99.90;;;;;;5085912;28;20028;-50
2022/05/04 05:54:04;;;;;;;45.13;22.20;;;9.40;99.90;;;;;;5064108;28;20047;-50
2022/05/04 05:56:30;;;;;;;37.03;21.90;;;9.40;99.90;;;;;;5063395;28;20025;-49
2022/05/04 05:58:56;;;;;;;43.50;22.52;;;9.40;99.90;;;;;;5068004;28;20039;-50
2022/05/04 06:01:21;;;;;;;39.10;21.45;;;9.40;99.90;;;;;;5069401;28;20486;-50
2022/05/04 06:03:49;;;;;;;40.33;21.50;;;9.50;99.90;;;;;;5058930;28;20060;-50
2022/05/04 06:06:14;;;;;;;44.03;21.48;;;9.50;99.90;;;;;;5080932;28;20029;-50
2022/05/04 06:08:40;;;;;;;38.28;21.67;;;9.70;99.90;;;;;;5061478;28;20029;-50
2022/05/04 06:11:06;;;;;;;46.42;21.77;;;9.80;99.90;;;;;;5054298;28;20080;-50
2022/05/04 06:13:31;;;;;;;48.45;22.70;;;10.00;99.90;;;;;;5052442;28;20036;-50
2022/05/04 06:15:57;;;;;;;38.22;21.55;;;10.20;99.90;;;;;;5058847;28;20113;-50
2022/05/04 06:18:22;;;;;;;53.20;21.98;;;10.30;99.90;;;;;;5060015;28;20028;-50
2022/05/04 06:20:48;;;;;;;47.30;22.15;;;10.60;99.90;;;;;;5061127;28;20043;-50
2022/05/04 06:23:14;;;;;;;39.95;21.08;;;10.80;99.90;;;;;;5065015;28;20028;-50
2022/05/04 06:25:41;;;;;;;45.55;19.95;;;10.90;99.90;;;;;;5054562;28;20028;-49
2022/05/04 06:28:07;;;;;;;36.58;20.17;;;10.90;99.90;;;;;;5055727;28;20559;-49
2022/05/04 06:36:01;;;;;;;43.92;20.67;;;11.50;99.90;;;;;;5053958;28;20128;-50
2022/05/04 06:38:27;;;;;;;34.30;19.02;;;11.60;99.90;;;;;;5057542;28;20104;-51
2022/05/04 06:40:54;;;;;;;34.17;17.33;;;11.40;99.90;;;;;;5049999;28;20063;-50
2022/05/04 06:43:20;;;;;;;28.17;15.45;;;11.50;99.90;;;;;;5057659;28;20465;-51
2022/05/04 06:45:46;;;;;;;38.63;17.20;;;11.50;99.90;;;;;;5052571;28;20264;-50
2022/05/04 06:48:11;;;;;;;25.98;14.07;;;11.80;99.90;;;;;;5060383;28;20489;-50
2022/05/04 06:50:37;;;;;;;26.20;13.45;;;11.90;99.90;;;;;;5059595;28;20102;-50
2022/05/04 06:53:03;;;;;;;27.10;12.18;;;11.80;99.90;;;;;;5060991;28;20028;-50
2022/05/04 06:55:29;;;;;;;21.77;11.70;;;11.80;99.90;;;;;;5058474;28;20048;-50
2022/05/04 06:57:55;;;;;;;19.35;11.98;;;11.70;99.90;;;;;;5063757;28;20021;-50
2022/05/04 07:00:20;;;;;;;29.98;12.73;;;11.90;99.90;;;;;;5058052;28;20025;-51
2022/05/04 07:02:46;;;;;;;26.77;11.25;;;12.40;99.90;;;;;;5055859;28;20101;-51
2022/05/04 07:05:12;;;;;;;19.63;10.20;;;13.50;99.90;;;;;;5056568;28;20032;-50
2022/05/04 07:07:37;;;;;;;23.48;10.98;;;14.90;99.90;;;;;;5051471;28;20032;-51
2022/05/04 07:10:03;;;;;;;18.25;9.60;;;16.20;99.90;;;;;;5060683;28;20490;-52
2022/05/04 07:12:29;;;;;;;15.10;9.32;;;17.10;99.90;;;;;;5059677;28;20040;-51
2022/05/04 07:14:56;;;;;;;15.70;8.48;;;17.90;97.10;;;;;;5059845;28;20031;-52
2022/05/04 07:17:22;;;;;;;14.95;8.40;;;18.70;95.40;;;;;;5053588;28;20021;-52
2022/05/04 07:19:48;;;;;;;17.00;8.35;;;19.30;92.50;;;;;;5055457;28;20024;-52
2022/05/04 07:22:14;;;;;;;17.50;8.23;;;19.90;91.20;;;;;;5064701;28;20032;-52
2022/05/04 07:24:40;;;;;;;16.92;8.52;;;20.30;90.20;;;;;;5051650;28;20027;-52
2022/05/04 07:27:08;;;;;;;15.70;8.50;;;20.80;87.70;;;;;;5063034;28;20036;-54
2022/05/04 07:29:34;;;;;;;19.13;9.25;;;21.60;84.60;;;;;;5061323;28;20431;-52
2022/05/04 07:32:00;;;;;;;16.45;9.35;;;21.00;84.80;;;;;;5064789;28;20028;-51
2022/05/04 07:34:26;;;;;;;15.70;8.98;;;21.00;84.70;;;;;;5059841;28;20048;-52
2022/05/04 07:36:52;;;;;;;22.73;10.30;;;20.30;86.40;;;;;;5058644;28;20025;-52
2022/05/04 07:44:47;;;;;;;15.93;9.60;;;20.10;87.20;;;;;;5059453;28;20039;-51
2022/05/04 07:47:13;;;;;;;18.88;10.63;;;20.20;86.90;;;;;;5061552;28;20040;-51
2022/05/04 07:49:38;;;;;;;17.58;10.48;;;20.90;85.50;;;;;;5065217;28;20025;-52
2022/05/04 07:52:04;;;;;;;18.17;10.57;;;21.10;84.30;;;;;;5061975;28;20040;-52
2022/05/04 07:54:30;;;;;;;20.25;11.38;;;21.60;82.80;;;;;;5060819;28;20035;-52
2022/05/04 07:56:56;;;;;;;21.23;10.98;;;22.60;79.80;;;;;;5059796;28;20077;-52
2022/05/04 07:59:21;;;;;;;21.95;12.18;;;22.40;79.30;;;;;;5060419;28;20039;-52
2022/05/04 08:04:33;;;;;;;19.77;11.95;;;23.00;75.90;;;;;;5059602;28;20036;-51
2022/05/04 08:06:58;;;;;;;22.15;12.23;;;22.40;77.40;;;;;;5061885;28;20024;-51
2022/05/04 08:09:24;;;;;;;25.27;11.70;;;22.10;78.60;;;;;;5060008;28;20039;-51
2022/05/04 08:11:50;;;;;;;24.00;13.68;;;21.60;80.00;;;;;;5057685;28;20037;-51
2022/05/04 08:14:16;;;;;;;18.33;14.50;;;21.50;80.40;;;;;;5057309;28;20040;-51
2022/05/04 08:16:42;;;;;;;31.40;15.75;;;21.20;82.80;;;;;;5055433;28;20033;-52
2022/05/04 08:19:08;;;;;;;23.88;14.93;;;21.50;81.10;;;;;;5059191;28;20083;-52
2022/05/04 08:21:36;;;;;;;23.27;14.98;;;22.00;79.60;;;;;;5060612;28;20029;-52
2022/05/04 08:24:02;;;;;;;24.17;15.07;;;22.90;78.10;;;;;;5062888;28;20477;-52
2022/05/04 08:26:27;;;;;;;21.98;14.52;;;23.30;75.60;;;;;;5062297;28;20033;-51
2022/05/04 08:28:53;;;;;;;21.52;15.25;;;22.90;74.80;;;;;;5060371;28;20083;-52
2022/05/04 08:31:21;;;;;;;21.85;14.48;;;22.60;76.80;;;;;;5055165;28;20033;-53
2022/05/04 08:33:48;;;;;;;25.05;14.90;;;22.60;76.50;;;;;;5063370;28;20012;-52
2022/05/04 08:36:13;;;;;;;23.95;14.02;;;22.40;76.50;;;;;;5059517;28;20016;-52
2022/05/04 08:38:39;;;;;;;24.95;15.50;;;22.40;75.90;;;;;;5061904;28;20647;-52
2022/05/04 08:41:06;;;;;;;21.13;14.20;;;22.40;75.80;;;;;;5063698;28;20162;-52
2022/05/04 08:43:32;;;;;;;25.00;14.75;;;22.30;75.70;;;;;;5065294;28;20024;-52
2022/05/04 08:46:02;;;;;;;25.98;14.57;;;23.00;74.20;;;;;;5065730;28;20024;-53
2022/05/04 08:48:32;;;;;;;21.63;14.65;;;23.30;74.00;;;;;;5064005;28;21155;-53
2022/05/04 08:51:05;;;;;;;20.60;14.63;;;23.40;72.30;;;;;;5063901;28;20408;-52
2022/05/04 08:53:32;;;;;;;22.85;15.68;;;23.20;72.80;;;;;;5063531;28;20082;-52
2022/05/04 08:55:58;;;;;;;23.55;14.27;;;22.60;74.50;;;;;;5063138;28;20032;-52
2022/05/04 08:58:23;;;;;;;22.88;15.15;;;22.80;74.80;;;;;;5060694;28;20025;-52
2022/05/04 09:00:49;;;;;;;19.42;14.45;;;23.00;71.90;;;;;;5062026;28;20073;-52
2022/05/04 09:03:15;;;;;;;19.58;14.20;;;22.40;73.00;;;;;;5062457;28;20031;-57
2022/05/04 09:05:46;;;;;;;24.45;14.10;;;22.60;72.80;;;;;;5062579;28;20033;-52
2022/05/04 09:08:12;;;;;;;19.40;15.27;;;22.90;72.70;;;;;;5062500;28;20024;-52
2022/05/04 09:10:44;;;;;;;23.42;15.77;;;22.50;73.20;;;;;;5062752;28;20036;-52
2022/05/04 09:13:10;;;;;;;22.10;15.60;;;21.90;74.80;;;;;;5063423;28;20028;-52
2022/05/04 09:15:40;;;;;;;24.83;15.82;;;22.00;74.50;;;;;;5064243;28;20029;-52
2022/05/04 09:18:15;;;;;;;22.77;16.02;;;22.40;74.20;;;;;;5061691;28;20439;-52
2022/05/04 09:20:48;;;;;;;23.00;16.02;;;22.00;74.50;;;;;;5065431;28;20034;-52
2022/05/04 09:23:28;;;;;;;24.23;15.75;;;22.70;73.90;;;;;;5062677;28;20078;-52
2022/05/04 09:25:55;;;;;;;21.30;15.52;;;22.30;74.40;;;;;;5064127;28;20028;-52
2022/05/04 09:28:24;;;;;;;20.92;14.52;;;22.70;73.60;;;;;;5061790;28;20039;-52
2022/05/04 09:30:55;;;;;;;18.27;14.18;;;22.40;73.20;;;;;;5066038;28;20052;-52
2022/05/04 09:33:29;;;;;;;18.40;13.70;;;23.30;72.80;;;;;;5058298;28;20084;-52
2022/05/04 09:35:56;;;;;;;18.63;14.07;;;23.50;72.20;;;;;;5064900;28;20568;-52
2022/05/04 09:46:50;;;;;;;20.42;14.95;;;24.40;68.60;;;;;;5061215;28;20101;-52
2022/05/04 09:49:19;;;;;;;17.42;13.63;;;24.60;68.20;;;;;;5063464;28;20478;-52
2022/05/04 09:51:50;;;;;;;19.77;14.15;;;23.50;70.10;;;;;;5060239;28;20535;-52
2022/05/04 09:54:27;;;;;;;21.05;14.02;;;23.60;70.50;;;;;;5059403;28;20040;-52
2022/05/04 09:56:58;;;;;;;19.85;14.63;;;23.00;70.90;;;;;;5062376;28;20033;-51
2022/05/04 09:59:33;;;;;;;24.67;14.82;;;22.10;73.30;;;;;;5062493;28;20060;-51
2022/05/04 10:02:03;;;;;;;23.67;15.20;;;21.60;76.00;;;;;;5056833;28;20032;-52
2022/05/04 10:04:36;;;;;;;22.25;13.50;;;22.30;75.20;;;;;;5056351;28;21053;-52
2022/05/04 10:07:03;;;;;;;21.85;15.77;;;23.10;71.50;;;;;;5059375;28;20446;-52
2022/05/04 10:09:30;;;;;;;27.42;14.57;;;23.20;71.50;;;;;;5057929;28;20036;-52
2022/05/04 10:11:58;;;;;;;30.45;15.70;;;23.80;70.10;;;;;;5059009;28;20036;-52
2022/05/04 10:14:25;;;;;;;25.38;16.95;;;23.70;71.40;;;;;;5063300;28;20655;-52
2022/05/04 10:17:00;;;;;;;26.30;17.10;;;24.00;71.10;;;;;;5060451;28;20340;-52
2022/05/04 10:19:36;;;;;;;22.40;16.98;;;23.70;71.50;;;;;;5060292;28;20501;-52
2022/05/04 10:22:08;;;;;;;24.38;15.05;;;23.80;72.20;;;;;;5064739;28;20033;-52
2022/05/04 10:24:35;;;;;;;27.63;16.98;;;23.40;69.40;;;;;;5056085;28;20121;-52
2022/05/04 10:27:25;;;;;;;26.27;17.02;;;24.00;69.70;;;;;;5068280;28;20239;-52
2022/05/04 10:32:48;;;;;;;26.92;18.60;;;23.80;70.60;;;;;;5069044;28;20040;-53
2022/05/04 10:35:20;;;;;;;21.20;16.40;;;23.60;72.30;;;;;;5069429;28;20048;-53
2022/05/04 10:37:58;;;;;;;27.38;18.10;;;24.70;68.20;;;;;;5070543;28;20103;-53
2022/05/04 10:40:25;;;;;;;21.98;16.95;;;23.90;69.40;;;;;;5071251;28;20062;-53
2022/05/04 10:42:59;;;;;;;23.73;16.50;;;23.80;70.20;;;;;;5072120;28;20607;-53
2022/05/04 10:45:30;;;;;;;24.88;16.83;;;24.10;69.80;;;;;;5068785;28;20081;-53
2022/05/04 10:48:19;;;;;;;26.37;17.17;;;24.60;69.60;;;;;;5070353;28;20066;-53
2022/05/04 10:50:57;;;;;;;24.52;16.10;;;25.60;67.20;;;;;;5066497;28;20495;-53
2022/05/04 10:53:27;;;;;;;19.55;16.48;;;25.80;65.70;;;;;;5070228;28;20373;-53
2022/05/04 10:55:59;;;;;;;21.67;17.80;;;25.60;66.60;;;;;;5070592;28;20020;-53
2022/05/04 10:58:41;;;;;;;22.33;17.02;;;24.90;67.00;;;;;;5069981;28;20113;-53
2022/05/04 11:01:14;;;;;;;23.02;16.15;;;25.60;66.90;;;;;;5069857;28;20123;-53
2022/05/04 11:04:08;;;;;;;18.92;14.93;;;25.50;66.20;;;;;;5069047;28;20055;-53
2022/05/04 11:06:39;;;;;;;18.95;13.85;;;25.80;64.90;;;;;;5070151;28;20031;-53
2022/05/04 11:09:18;;;;;;;21.42;15.57;;;25.30;65.80;;;;;;5068501;28;20039;-52
2022/05/04 11:11:46;;;;;;;18.15;14.52;;;25.30;65.70;;;;;;5070108;28;20451;-53
2022/05/04 11:14:14;;;;;;;19.05;14.80;;;26.10;64.20;;;;;;5070168;28;20020;-52
2022/05/04 11:16:41;;;;;;;18.67;14.70;;;25.20;64.50;;;;;;5070043;28;20069;-52
2022/05/04 11:19:08;;;;;;;22.23;16.00;;;25.00;65.90;;;;;;5070244;28;20021;-53
2022/05/04 11:21:37;;;;;;;20.17;14.95;;;25.30;65.90;;;;;;5070237;28;20456;-53
2022/05/04 11:24:07;;;;;;;19.80;14.35;;;25.60;65.10;;;;;;5070064;28;20373;-53
2022/05/04 11:26:40;;;;;;;19.73;14.38;;;25.80;64.00;;;;;;5068725;28;20530;-53
2022/05/04 11:29:13;;;;;;;22.20;14.88;;;26.10;64.50;;;;;;5069978;28;20431;-53
2022/05/04 11:31:47;;;;;;;18.73;15.43;;;26.50;62.90;;;;;;5069246;28;20370;-52
2022/05/04 11:34:16;;;;;;;20.80;13.90;;;24.70;66.70;;;;;;5069569;28;20045;-53
2022/05/04 11:36:44;;;;;;;16.38;10.65;;;24.30;67.90;;;;;;5070053;28;20063;-53
2022/05/04 11:39:12;;;;;;;18.00;13.50;;;24.90;65.10;;;;;;5070082;28;20104;-53
2022/05/04 11:41:38;;;;;;;19.83;13.32;;;25.40;64.70;;;;;;5070174;28;20017;-53
2022/05/04 11:44:05;;;;;;;17.88;13.95;;;25.10;64.30;;;;;;5070026;28;20074;-52
2022/05/04 11:46:31;;;;;;;22.73;13.32;;;25.00;65.20;;;;;;5069949;28;20422;-53
2022/05/04 11:48:58;;;;;;;19.50;14.68;;;25.30;65.70;;;;;;5068314;28;20105;-51
2022/05/04 11:51:24;;;;;;;21.80;13.98;;;25.50;65.10;;;;;;5069257;28;20032;-53
2022/05/04 11:53:49;;;;;;;17.20;13.98;;;26.60;63.50;;;;;;5069301;28;20024;-53
2022/05/04 11:56:15;;;;;;;18.75;13.60;;;26.90;62.00;;;;;;5071840;28;20482;-53
2022/05/04 11:58:42;;;;;;;18.65;14.60;;;26.40;63.50;;;;;;5074096;28;20017;-53
2022/05/04 12:01:08;;;;;;;19.25;14.65;;;26.10;63.30;;;;;;5074321;28;20016;-53
2022/05/04 12:03:38;;;;;;;17.90;14.25;;;26.00;63.60;;;;;;5074165;28;20028;-53
2022/05/04 12:06:06;;;;;;;21.50;15.60;;;25.40;65.40;;;;;;5074236;28;20028;-52
2022/05/04 12:08:32;;;;;;;18.30;13.63;;;25.00;65.80;;;;;;5073540;28;20441;-52
2022/05/04 12:10:59;;;;;;;22.50;13.98;;;25.80;65.80;;;;;;5073925;28;20032;-53
2022/05/04 12:13:26;;;;;;;18.85;14.02;;;26.60;63.20;;;;;;5073488;28;20102;-52
2022/05/04 12:15:55;;;;;;;20.15;14.48;;;27.00;61.90;;;;;;5073446;28;20021;-53
2022/05/04 12:18:29;;;;;;;21.50;15.07;;;27.10;62.10;;;;;;5073102;28;20104;-53
2022/05/04 12:20:56;;;;;;;24.48;15.35;;;27.90;61.70;;;;;;5073895;28;20106;-53
2022/05/04 12:23:23;;;;;;;18.63;14.05;;;28.80;59.60;;;;;;5073259;28;20031;-52
2022/05/04 12:25:48;;;;;;;19.20;12.75;;;28.70;59.40;;;;;;5073052;28;20032;-53
2022/05/04 12:28:15;;;;;;;13.20;8.40;;;26.90;62.00;;;;;;5073112;28;20025;-53
2022/05/04 12:33:44;;;;;;;9.30;7.88;;;26.10;62.60;;;;;;5069637;28;20116;-54
2022/05/04 12:36:12;;;;;;;14.52;8.15;;;27.60;60.20;;;;;;5072251;28;20187;-52
2022/05/04 12:38:45;;;;;;;11.35;8.82;;;28.00;59.60;;;;;;5073091;28;20047;-52
2022/05/04 12:41:12;;;;;;;11.55;9.25;;;27.60;59.20;;;;;;5073291;28;20036;-52
2022/05/04 12:43:38;;;;;;;18.08;9.60;;;27.30;60.00;;;;;;5073162;28;20436;-52
2022/05/04 12:46:08;;;;;;;12.00;8.02;;;27.70;59.50;;;;;;5073341;28;20024;-51
2022/05/04 12:48:38;;;;;;;11.93;8.48;;;26.20;61.20;;;;;;5072705;28;20020;-53
2022/05/04 12:51:04;;;;;;;15.75;8.00;;;26.40;62.30;;;;;;5073162;28;20020;-52
2022/05/04 12:53:30;;;;;;;11.20;8.18;;;28.30;59.70;;;;;;5072828;28;20591;-52
2022/05/04 12:58:40;;;;;;;16.08;8.50;;;27.30;60.00;;;;;;5072845;28;20031;-53
2022/05/04 13:01:06;;;;;;;12.48;8.65;;;26.70;60.20;;;;;;5072708;28;20012;-52
2022/05/04 13:03:32;;;;;;;9.70;7.20;;;26.10;61.80;;;;;;5072191;28;20051;-53
2022/05/04 13:05:59;;;;;;;10.30;5.25;;;27.00;61.80;;;;;;5072385;28;20070;-53
2022/05/04 13:08:27;;;;;;;7.32;4.20;;;28.10;59.30;;;;;;5071626;28;20024;-53
2022/05/04 13:10:53;;;;;;;5.75;4.68;;;28.70;57.50;;;;;;5072824;28;20078;-53
2022/05/04 13:13:20;;;;;;;8.80;5.93;;;28.30;58.00;;;;;;5072034;28;20036;-53
2022/05/04 13:15:52;;;;;;;11.27;6.18;;;28.30;57.70;;;;;;5072372;28;20016;-53